createdAt,value
2022-09-02T00:01:27.708Z,29.25
2022-09-02T00:04:01.518Z,26.00
2022-09-02T00:06:29.879Z,27.00
2022-09-02T00:08:57.360Z,23.00
2022-09-02T00:11:27.208Z,29.50
2022-09-02T00:13:56.476Z,25.00
2022-09-02T00:16:24.673Z,25.00
2022-09-02T00:18:52.862Z,26.75
2022-09-02T00:21:21.473Z,23.25
2022-09-02T00:23:49.678Z,21.00
2022-09-02T00:26:17.199Z,26.75
2022-09-02T00:28:48.969Z,24.50
2022-09-02T00:31:20.817Z,25.50
2022-09-02T00:33:47.916Z,24.00
2022-09-02T00:36:14.835Z,25.75
2022-09-02T00:38:41.640Z,21.00
2022-09-02T00:41:10.704Z,21.00
2022-09-02T00:43:50.195Z,27.75
2022-09-02T00:46:21.021Z,22.00
2022-09-02T00:48:55.914Z,20.50
2022-09-02T00:51:23.687Z,27.00
2022-09-02T00:53:51.378Z,29.00
2022-09-02T00:56:27.805Z,29.00
2022-09-02T00:58:56.535Z,23.50
2022-09-02T01:01:24.218Z,23.00
2022-09-02T01:03:51.560Z,21.50
2022-09-02T01:06:22.202Z,23.25
2022-09-02T01:08:54.722Z,22.00
2022-09-02T01:11:41.807Z,19.00
2022-09-02T01:14:09.893Z,22.25
2022-09-02T01:16:54.960Z,29.00
2022-09-02T01:19:25.893Z,23.75
2022-09-02T01:21:57.456Z,26.75
2022-09-02T01:24:30.090Z,21.00
2022-09-02T01:26:59.007Z,18.25
2022-09-02T01:29:28.498Z,17.50
2022-09-02T01:31:55.585Z,16.00
2022-09-02T01:34:22.475Z,22.75
2022-09-02T01:36:49.417Z,27.00
2022-09-02T01:39:17.104Z,25.50
2022-09-02T01:41:45.057Z,21.25
2022-09-02T01:44:12.056Z,17.75
2022-09-02T01:46:39.952Z,24.50
2022-09-02T01:49:07.221Z,20.50
2022-09-02T01:51:34.555Z,19.00
2022-09-02T01:54:02.925Z,18.00
2022-09-02T01:56:37.565Z,17.00
2022-09-02T01:59:05.143Z,24.25
2022-09-02T02:01:32.007Z,18.00
2022-09-02T02:03:59.894Z,21.25
2022-09-02T02:06:27.623Z,24.75
2022-09-02T02:08:55.306Z,18.75
2022-09-02T02:11:25.828Z,18.00
2022-09-02T02:13:57.807Z,18.00
2022-09-02T02:16:25.676Z,15.00
2022-09-02T02:18:52.541Z,17.00
2022-09-02T02:21:20.746Z,17.00
2022-09-02T02:23:47.814Z,16.00
2022-09-02T02:26:14.747Z,15.00
2022-09-02T02:28:41.601Z,16.00
2022-09-02T02:31:09.586Z,20.75
2022-09-02T02:33:37.513Z,20.75
2022-09-02T02:36:08.082Z,22.00
2022-09-02T02:38:37.291Z,26.75
2022-09-02T02:41:05.140Z,26.00
2022-09-02T02:43:34.368Z,27.00
2022-09-02T02:46:01.309Z,19.75
2022-09-02T02:48:28.229Z,18.00
2022-09-02T02:50:55.663Z,17.00
2022-09-02T02:53:22.971Z,20.00
2022-09-02T02:55:50.170Z,26.25
2022-09-02T02:58:18.816Z,24.00
2022-09-02T03:00:47.537Z,27.50
2022-09-02T03:03:15.625Z,26.00
2022-09-02T03:05:42.676Z,28.00
2022-09-02T03:08:10.401Z,31.75
2022-09-02T03:10:38.887Z,33.00
2022-09-02T03:13:05.902Z,32.00
2022-09-02T03:15:33.362Z,31.00
2022-09-02T03:18:00.228Z,33.25
2022-09-02T03:20:27.171Z,34.00
2022-09-02T03:22:59.370Z,34.00
2022-09-02T03:25:33.482Z,36.00
2022-09-02T03:28:05.953Z,35.00
2022-09-02T03:30:33.645Z,36.50
2022-09-02T03:33:04.213Z,37.00
2022-09-02T03:35:37.952Z,38.75
2022-09-02T03:38:05.104Z,38.00
2022-09-02T03:40:32.025Z,36.50
2022-09-02T03:43:00.347Z,37.00
2022-09-02T03:45:30.012Z,38.00
2022-09-02T03:47:59.187Z,39.00
2022-09-02T03:50:33.413Z,37.00
2022-09-02T03:53:06.701Z,36.50
2022-09-02T03:55:35.963Z,37.00
2022-09-02T03:58:08.297Z,37.00
2022-09-02T04:00:37.856Z,37.00
2022-09-02T04:03:05.404Z,36.00
2022-09-02T04:05:33.960Z,35.50
2022-09-02T04:08:01.589Z,35.00
2022-09-02T04:10:29.390Z,35.00
2022-09-02T04:12:56.771Z,35.00
2022-09-02T04:15:23.750Z,35.50
2022-09-02T04:17:51.411Z,35.00
2022-09-02T04:20:20.697Z,35.00
2022-09-02T04:22:47.546Z,35.00
2022-09-02T04:25:15.552Z,35.75
2022-09-02T04:27:50.812Z,35.00
2022-09-02T04:30:18.031Z,34.00
2022-09-02T04:32:45.956Z,33.00
2022-09-02T04:35:13.230Z,32.00
2022-09-02T04:37:41.144Z,31.00
2022-09-02T04:40:09.124Z,32.50
2022-09-02T04:42:36.447Z,32.75
2022-09-02T04:45:03.686Z,32.00
2022-09-02T04:47:31.923Z,31.00
2022-09-02T04:49:59.251Z,31.25
2022-09-02T04:52:26.996Z,32.50
2022-09-02T04:54:53.988Z,32.00
2022-09-02T04:57:20.997Z,32.50
2022-09-02T04:59:48.162Z,32.00
2022-09-02T05:02:15.107Z,32.50
2022-09-02T05:04:42.421Z,31.75
2022-09-02T05:07:17.213Z,31.00
2022-09-02T05:09:47.311Z,26.00
2022-09-02T05:12:17.655Z,29.25
2022-09-02T05:14:49.845Z,29.75
2022-09-02T05:17:19.124Z,30.00
2022-09-02T05:19:47.910Z,30.00
2022-09-02T05:22:19.015Z,28.00
2022-09-02T05:24:46.992Z,30.75
2022-09-02T05:27:15.568Z,31.00
2022-09-02T05:29:45.442Z,29.00
2022-09-02T05:32:14.066Z,29.00
2022-09-02T05:34:41.350Z,27.00
2022-09-02T05:37:08.608Z,29.75
2022-09-02T05:39:37.047Z,30.25
2022-09-02T05:42:08.457Z,29.00
2022-09-02T05:44:36.887Z,28.00
2022-09-02T05:47:05.244Z,29.00
2022-09-02T05:49:32.784Z,28.00
2022-09-02T05:52:05.400Z,27.00
2022-09-02T05:54:40.469Z,30.00
2022-09-02T05:57:17.198Z,28.25
2022-09-02T06:00:06.306Z,28.00
2022-09-02T06:02:43.869Z,27.50
2022-09-02T06:05:36.745Z,29.00
2022-09-02T06:08:12.707Z,28.00
2022-09-02T06:10:42.991Z,29.00
2022-09-02T06:13:12.601Z,29.00
2022-09-02T06:15:43.593Z,27.00
2022-09-02T06:18:12.548Z,30.25
2022-09-02T06:20:43.449Z,29.00
2022-09-02T06:23:10.809Z,28.00
2022-09-02T06:25:43.788Z,28.25
2022-09-02T06:28:31.257Z,27.00
2022-09-02T06:30:59.850Z,27.00
2022-09-02T06:33:26.920Z,31.50
2022-09-02T06:35:54.349Z,30.00
2022-09-02T06:38:21.260Z,29.00
2022-09-02T06:40:52.333Z,26.00
2022-09-02T06:43:25.524Z,30.00
2022-09-02T06:46:23.002Z,30.50
2022-09-02T06:48:52.770Z,28.50
2022-09-02T06:51:27.227Z,29.25
2022-09-02T06:53:55.961Z,31.75
2022-09-02T06:56:26.447Z,28.00
2022-09-02T06:58:54.035Z,28.75
2022-09-02T07:01:35.193Z,28.00
2022-09-02T07:04:04.163Z,26.75
2022-09-02T07:06:37.472Z,29.25
2022-09-02T07:09:07.307Z,32.00
2022-09-02T07:11:36.228Z,28.25
2022-09-02T07:14:04.445Z,28.00
2022-09-02T07:16:34.915Z,29.00
2022-09-02T07:19:05.599Z,27.00
2022-09-02T07:21:34.634Z,25.00
2022-09-02T07:24:02.006Z,29.25
2022-09-02T07:26:30.060Z,31.50
2022-09-02T07:28:57.218Z,28.00
2022-09-02T07:31:25.482Z,29.50
2022-09-02T07:33:52.924Z,30.00
2022-09-02T07:36:20.001Z,30.00
2022-09-02T07:38:48.778Z,32.25
2022-09-02T07:41:16.117Z,29.00
2022-09-02T07:43:43.111Z,30.00
2022-09-02T07:46:10.815Z,30.00
2022-09-02T07:48:38.043Z,28.50
2022-09-02T07:51:06.093Z,27.00
2022-09-02T07:53:35.290Z,30.50
2022-09-02T07:56:03.144Z,33.00
2022-09-02T07:58:30.584Z,30.00
2022-09-02T08:01:02.068Z,28.00
2022-09-02T08:03:52.537Z,27.00
2022-09-02T08:06:29.764Z,26.50
2022-09-02T08:09:05.645Z,26.00
2022-09-02T08:11:33.343Z,28.00
2022-09-02T08:14:00.159Z,31.50
2022-09-02T08:16:27.442Z,30.00
2022-09-02T08:18:54.336Z,30.00
2022-09-02T08:21:21.119Z,31.00
2022-09-02T08:23:47.978Z,30.00
2022-09-02T08:26:14.738Z,33.75
2022-09-02T08:28:41.517Z,33.00
2022-09-02T08:31:08.347Z,32.00
2022-09-02T08:34:01.389Z,31.50
2022-09-02T08:36:28.928Z,33.75
2022-09-02T08:38:56.144Z,32.00
2022-09-02T08:41:33.691Z,30.75
2022-09-02T08:44:02.576Z,32.50
2022-09-02T08:46:33.677Z,32.00
2022-09-02T08:49:18.290Z,32.00
2022-09-02T08:51:56.602Z,34.00
2022-09-02T08:54:41.959Z,34.00
2022-09-02T08:57:09.501Z,33.00
2022-09-02T08:59:38.132Z,34.00
2022-09-02T09:02:27.379Z,33.00
2022-09-02T09:05:05.726Z,33.00
2022-09-02T09:07:58.596Z,32.00
2022-09-02T09:10:38.973Z,32.00
2022-09-02T09:13:54.388Z,32.00
2022-09-02T09:16:48.836Z,32.00
2022-09-02T09:19:22.755Z,30.75
2022-09-02T09:21:49.651Z,32.00
2022-09-02T09:24:32.153Z,31.00
2022-09-02T09:26:59.977Z,31.00
2022-09-02T09:29:26.816Z,34.00
2022-09-02T09:32:00.058Z,33.00
2022-09-02T09:35:07.206Z,32.00
2022-09-02T09:37:47.327Z,33.00
2022-09-02T09:40:20.093Z,32.25
2022-09-02T09:42:50.030Z,32.00
2022-09-02T09:45:29.305Z,32.00
2022-09-02T09:48:21.276Z,31.00
2022-09-02T09:51:12.693Z,31.00
2022-09-02T09:53:39.938Z,30.25
2022-09-02T09:56:15.810Z,33.25
2022-09-02T09:58:46.659Z,32.25
2022-09-02T10:01:23.149Z,34.25
2022-09-02T10:03:53.548Z,33.00
2022-09-02T10:06:42.039Z,33.50
2022-09-02T10:09:18.146Z,33.00
2022-09-02T10:12:02.930Z,32.75
2022-09-02T10:14:49.901Z,31.50
2022-09-02T10:17:37.850Z,32.00
2022-09-02T10:20:19.896Z,30.00
2022-09-02T10:23:27.253Z,29.25
2022-09-02T10:26:33.694Z,32.50
2022-09-02T10:29:41.737Z,33.00
2022-09-02T10:32:46.079Z,33.00
2022-09-02T10:35:20.698Z,31.00
2022-09-02T10:38:19.552Z,31.00
2022-09-02T10:40:55.084Z,34.00
2022-09-02T10:43:39.970Z,31.00
2022-09-02T10:46:09.497Z,29.00
2022-09-02T10:48:51.271Z,32.00
2022-09-02T10:51:49.540Z,32.00
2022-09-02T10:54:27.991Z,30.00
2022-09-02T10:57:10.282Z,30.25
2022-09-02T10:59:59.648Z,33.00
2022-09-02T11:02:39.425Z,31.00
2022-09-02T11:05:14.912Z,28.00
2022-09-02T11:07:52.963Z,32.75
2022-09-02T11:10:26.679Z,33.00
2022-09-02T11:13:11.752Z,32.00
2022-09-02T11:16:05.998Z,30.00
2022-09-02T11:18:44.921Z,30.00
2022-09-02T11:21:32.001Z,28.00
2022-09-02T11:24:25.886Z,31.00
2022-09-02T11:27:00.321Z,31.00
2022-09-02T11:30:01.008Z,33.00
2022-09-02T11:32:38.986Z,36.00
2022-09-02T11:35:12.916Z,32.00
2022-09-02T11:37:53.471Z,33.00
2022-09-02T11:40:35.124Z,33.00
2022-09-02T11:43:21.976Z,32.00
2022-09-02T11:46:27.495Z,31.00
2022-09-02T11:49:21.301Z,33.00
2022-09-02T11:55:08.365Z,29.00
2022-09-02T11:57:35.810Z,27.00
2022-09-02T12:00:07.341Z,27.75
2022-09-02T12:02:49.459Z,30.00
2022-09-02T12:05:29.242Z,31.25
2022-09-02T12:08:02.323Z,31.00
2022-09-02T12:10:44.524Z,32.00
2022-09-02T12:13:31.341Z,31.00
2022-09-02T12:16:16.949Z,31.50
2022-09-02T12:18:53.843Z,29.50
2022-09-02T12:21:25.438Z,31.00
2022-09-02T12:23:53.336Z,31.00
2022-09-02T12:26:36.276Z,29.00
2022-09-02T12:29:12.362Z,31.75
2022-09-02T12:31:42.867Z,32.00
2022-09-02T12:34:21.910Z,31.50
2022-09-02T12:36:51.160Z,32.00
2022-09-02T12:39:23.824Z,30.00
2022-09-02T12:42:01.220Z,29.00
2022-09-02T12:44:47.943Z,30.75
2022-09-02T12:47:23.988Z,29.00
2022-09-02T12:50:19.813Z,28.00
2022-09-02T12:52:49.586Z,32.00
2022-09-02T12:55:22.765Z,32.00
2022-09-02T12:58:06.970Z,33.00
2022-09-02T13:00:40.327Z,32.00
2022-09-02T13:03:29.585Z,31.00
2022-09-02T13:06:05.630Z,29.00
2022-09-02T13:08:53.019Z,30.50
2022-09-02T13:11:46.533Z,30.00
2022-09-02T13:14:41.409Z,30.25
2022-09-02T13:17:37.435Z,31.25
2022-09-02T13:20:23.338Z,32.25
2022-09-02T13:23:31.383Z,28.00
2022-09-02T13:26:48.509Z,30.00
2022-09-02T13:29:25.419Z,31.00
2022-09-02T13:32:19.192Z,30.50
2022-09-02T13:34:49.453Z,31.00
2022-09-02T13:37:36.533Z,32.00
2022-09-02T13:40:29.056Z,33.75
2022-09-02T13:42:58.634Z,30.00
2022-09-02T13:45:27.481Z,30.75
2022-09-02T13:48:01.818Z,31.00
2022-09-02T13:50:31.976Z,31.00
2022-09-02T13:55:56.132Z,29.50
2022-09-02T13:58:29.278Z,36.00
2022-09-02T14:01:01.909Z,31.75
2022-09-02T14:03:30.900Z,27.00
2022-09-02T14:05:58.316Z,26.00
2022-09-02T14:08:27.861Z,28.50
2022-09-02T14:10:55.922Z,30.00
2022-09-02T14:13:23.665Z,28.00
2022-09-02T14:15:50.813Z,30.00
2022-09-02T14:18:20.506Z,28.00
2022-09-02T14:21:16.875Z,29.50
2022-09-02T14:23:53.039Z,30.00
2022-09-02T14:26:44.124Z,27.00
2022-09-02T14:29:20.212Z,29.00
2022-09-02T14:32:02.727Z,32.00
2022-09-02T14:34:43.919Z,29.00
2022-09-02T14:37:23.601Z,30.00
2022-09-02T14:40:03.947Z,30.75
2022-09-02T14:42:31.683Z,26.50
2022-09-02T14:44:59.081Z,27.00
2022-09-02T14:47:26.662Z,25.00
2022-09-02T14:49:55.818Z,29.00
2022-09-02T14:52:29.781Z,27.00
2022-09-02T14:54:58.168Z,25.00
2022-09-02T14:57:28.657Z,25.00
2022-09-02T15:00:04.407Z,23.00
2022-09-02T15:02:33.924Z,28.25
2022-09-02T15:05:04.521Z,31.00
2022-09-02T15:07:31.687Z,30.00
2022-09-02T15:09:58.934Z,30.00
2022-09-02T15:12:32.582Z,28.00
2022-09-02T15:15:07.364Z,26.00
2022-09-02T15:17:34.587Z,28.00
2022-09-02T15:20:01.500Z,27.00
2022-09-02T15:22:28.765Z,28.00
2022-09-02T15:24:56.981Z,27.00
2022-09-02T15:27:23.814Z,28.75
2022-09-02T15:29:50.687Z,30.50
2022-09-02T15:32:17.650Z,32.00
2022-09-02T15:34:44.805Z,31.00
2022-09-02T15:37:13.191Z,32.50
2022-09-02T15:39:40.446Z,28.50
2022-09-02T15:42:07.718Z,24.00
2022-09-02T15:44:34.606Z,27.00
2022-09-02T15:47:03.441Z,27.50
2022-09-02T15:49:30.294Z,25.00
2022-09-02T15:51:58.439Z,25.75
2022-09-02T15:54:25.682Z,31.50
2022-09-02T15:56:57.351Z,29.50
2022-09-02T15:59:25.702Z,29.50
2022-09-02T16:01:55.159Z,29.00
2022-09-02T16:04:23.282Z,28.75
2022-09-02T16:06:52.136Z,30.00
2022-09-02T16:09:19.879Z,28.00
2022-09-02T16:11:52.357Z,28.00
2022-09-02T16:14:21.281Z,27.00
2022-09-02T16:16:49.445Z,24.75
2022-09-02T16:19:19.811Z,24.00
2022-09-02T16:21:46.884Z,23.25
2022-09-02T16:24:14.223Z,27.50
2022-09-02T16:26:51.116Z,34.00
2022-09-02T16:29:19.248Z,30.50
2022-09-02T16:34:35.609Z,27.25
2022-09-02T16:37:02.620Z,30.00
2022-09-02T16:39:29.532Z,33.00
2022-09-02T16:41:56.423Z,30.00
2022-09-02T16:44:25.726Z,26.00
2022-09-02T16:46:53.617Z,26.00
2022-09-02T16:49:22.359Z,32.00
2022-09-02T16:51:53.993Z,35.00
2022-09-02T16:54:31.236Z,30.50
2022-09-02T16:57:03.575Z,34.75
2022-09-02T16:59:30.507Z,35.00
2022-09-02T17:01:58.186Z,29.50
2022-09-02T17:04:25.010Z,27.00
2022-09-02T17:06:51.842Z,35.25
2022-09-02T17:09:18.788Z,36.75
2022-09-02T17:11:45.750Z,38.00
2022-09-02T17:14:16.469Z,31.75
2022-09-02T17:16:46.961Z,27.00
2022-09-02T17:19:16.133Z,25.50
2022-09-02T17:21:45.621Z,25.00
2022-09-02T17:24:14.707Z,27.00
2022-09-02T17:26:44.026Z,25.00
2022-09-02T17:29:46.870Z,31.75
2022-09-02T17:32:16.746Z,29.75
2022-09-02T17:34:44.106Z,34.00
2022-09-02T17:37:10.937Z,35.00
2022-09-02T17:39:38.147Z,33.00
2022-09-02T17:42:06.647Z,29.00
2022-09-02T17:44:37.223Z,29.50
2022-09-02T17:47:10.156Z,29.00
2022-09-02T17:49:39.186Z,29.00
2022-09-02T17:52:08.255Z,29.50
2022-09-02T17:54:37.809Z,23.00
2022-09-02T17:57:32.563Z,29.00
2022-09-02T18:00:12.714Z,31.00
2022-09-02T18:03:01.481Z,33.75
2022-09-02T18:05:45.401Z,33.50
2022-09-02T18:08:45.481Z,33.00
2022-09-02T18:11:13.677Z,31.00
2022-09-02T18:14:11.007Z,31.00
2022-09-02T18:17:15.357Z,31.00
2022-09-02T18:20:12.393Z,30.00
2022-09-02T18:23:04.032Z,28.50
2022-09-02T18:25:49.554Z,29.00
2022-09-02T18:28:39.631Z,30.00
2022-09-02T18:31:39.501Z,31.50
2022-09-02T18:34:30.209Z,24.50
2022-09-02T18:37:28.313Z,25.00
2022-09-02T18:40:20.201Z,22.25
2022-09-02T18:43:11.565Z,26.25
2022-09-02T18:45:49.092Z,27.00
2022-09-02T18:48:32.369Z,27.75
2022-09-02T18:51:21.408Z,25.00
2022-09-02T18:53:56.705Z,24.75
2022-09-02T18:56:31.440Z,25.25
2022-09-02T18:59:06.089Z,26.75
2022-09-02T19:01:40.890Z,25.00
2022-09-02T19:04:07.940Z,25.00
2022-09-02T19:06:40.693Z,23.00
2022-09-02T19:09:12.223Z,22.00
2022-09-02T19:11:40.180Z,22.00
2022-09-02T19:14:29.237Z,21.00
2022-09-02T19:16:57.824Z,25.00
2022-09-02T19:19:25.483Z,22.50
2022-09-02T19:22:01.676Z,24.50
2022-09-02T19:24:34.103Z,26.00
2022-09-02T19:27:08.081Z,25.50
2022-09-02T19:29:40.145Z,23.50
2022-09-02T19:32:07.845Z,30.75
2022-09-02T19:34:39.897Z,25.25
2022-09-02T19:37:08.191Z,28.25
2022-09-02T19:39:35.198Z,29.50
2022-09-02T19:42:02.315Z,26.50
2022-09-02T19:44:29.281Z,22.00
2022-09-02T19:47:42.264Z,22.00
2022-09-02T19:49:43.435Z,20.00
2022-09-02T19:52:11.499Z,24.50
2022-09-02T19:54:38.454Z,21.00
2022-09-02T19:57:05.356Z,22.00
2022-09-02T19:59:32.705Z,27.00
2022-09-02T20:01:59.975Z,22.00
2022-09-02T20:04:29.872Z,20.00
2022-09-02T20:07:11.417Z,19.00
2022-09-02T20:09:38.383Z,22.00
2022-09-02T20:12:05.235Z,25.25
2022-09-02T20:14:34.548Z,27.00
2022-09-02T20:17:09.601Z,23.75
2022-09-02T20:19:36.873Z,27.25
2022-09-02T20:22:05.009Z,23.75
2022-09-02T20:24:33.981Z,24.50
2022-09-02T20:27:16.125Z,25.25
2022-09-02T20:30:04.983Z,28.00
2022-09-02T20:32:53.609Z,29.50
2022-09-02T20:35:35.471Z,22.00
2022-09-02T20:38:40.056Z,24.00
2022-09-02T20:41:15.867Z,22.00
2022-09-02T20:44:18.598Z,19.00
2022-09-02T20:46:55.490Z,22.75
2022-09-02T20:49:28.922Z,22.00
2022-09-02T20:52:11.987Z,19.00
2022-09-02T20:54:48.642Z,21.75
2022-09-02T20:57:43.270Z,23.00
2022-09-02T21:00:13.201Z,17.00
2022-09-02T21:02:51.375Z,19.25
2022-09-02T21:05:28.140Z,18.75
2022-09-02T21:08:03.902Z,21.25
2022-09-02T21:10:36.249Z,26.50
2022-09-02T21:13:40.119Z,26.25
2022-09-02T21:16:20.051Z,20.50
2022-09-02T21:19:03.425Z,16.00
2022-09-02T21:21:57.098Z,21.75
2022-09-02T21:24:42.659Z,23.00
2022-09-02T21:27:31.952Z,18.25
2022-09-02T21:30:06.576Z,23.25
2022-09-02T21:32:49.748Z,19.25
2022-09-02T21:35:28.368Z,25.25
2022-09-02T21:38:12.378Z,25.00
2022-09-02T21:40:47.348Z,17.25
2022-09-02T21:43:59.099Z,22.50
2022-09-02T21:46:39.142Z,17.25
2022-09-02T21:49:49.215Z,15.50
2022-09-02T21:52:42.187Z,18.25
2022-09-02T21:55:48.193Z,21.00
2022-09-02T21:58:24.163Z,21.00
2022-09-02T22:00:58.458Z,22.50
2022-09-02T22:03:50.899Z,24.75
2022-09-02T22:06:36.371Z,21.75
2022-09-02T22:09:29.345Z,26.25
2022-09-02T22:12:09.083Z,19.75
2022-09-02T22:15:11.526Z,17.50
2022-09-02T22:17:52.921Z,19.00
2022-09-02T22:20:31.985Z,15.50
2022-09-02T22:23:05.544Z,20.75
2022-09-02T22:25:34.119Z,23.00
2022-09-02T22:28:16.086Z,15.50
2022-09-02T22:30:57.765Z,12.50
2022-09-02T22:33:30.940Z,13.50
2022-09-02T22:36:06.450Z,14.50
2022-09-02T22:38:44.509Z,13.00
2022-09-02T22:41:21.304Z,12.50
2022-09-02T22:44:09.208Z,13.00
2022-09-02T22:47:13.458Z,12.00
2022-09-02T22:49:57.071Z,17.00
2022-09-02T22:52:34.090Z,16.75
2022-09-02T22:55:01.457Z,15.00
2022-09-02T22:57:56.584Z,15.00
2022-09-02T23:00:23.866Z,21.25
2022-09-02T23:03:05.648Z,16.50
2022-09-02T23:05:55.512Z,17.00
2022-09-02T23:08:22.685Z,15.00
2022-09-02T23:11:02.456Z,15.00
2022-09-02T23:13:35.290Z,12.50
2022-09-02T23:16:32.403Z,13.75
2022-09-02T23:19:22.273Z,14.25
2022-09-02T23:22:25.993Z,12.00
2022-09-02T23:25:20.541Z,12.00
2022-09-02T23:28:16.719Z,15.75
2022-09-02T23:31:13.069Z,14.50
2022-09-02T23:33:42.745Z,14.50
2022-09-02T23:36:49.668Z,22.25
2022-09-02T23:39:26.025Z,16.50
2022-09-02T23:41:58.066Z,21.25
2022-09-02T23:44:25.021Z,24.75
2022-09-02T23:47:21.360Z,22.00
2022-09-02T23:50:08.640Z,15.00
2022-09-02T23:53:01.171Z,20.00
2022-09-02T23:55:47.996Z,14.75
2022-09-02T23:58:50.122Z,12.00
